createdAt,value
2024-02-27T00:00:17.339Z,100.00
2024-02-27T00:02:43.986Z,100.00
2024-02-27T00:05:10.626Z,100.00
2024-02-27T00:07:37.389Z,100.00
2024-02-27T00:10:05.517Z,100.00
2024-02-27T00:12:32.647Z,100.00
2024-02-27T00:14:59.595Z,100.00
2024-02-27T00:17:26.570Z,100.00
2024-02-27T00:19:53.510Z,100.00
2024-02-27T00:22:20.241Z,100.00
2024-02-27T00:24:46.907Z,100.00
2024-02-27T00:27:13.767Z,100.00
2024-02-27T00:29:41.234Z,100.00
2024-02-27T00:32:08.390Z,100.00
2024-02-27T00:34:36.606Z,100.00
2024-02-27T00:37:03.290Z,100.00
2024-02-27T00:39:29.842Z,100.00
2024-02-27T00:41:58.387Z,100.00
2024-02-27T00:44:25.580Z,100.00
2024-02-27T00:46:52.258Z,100.00
2024-02-27T00:49:19.045Z,100.00
2024-02-27T00:51:45.938Z,100.00
2024-02-27T00:54:12.537Z,100.00
2024-02-27T00:56:39.339Z,100.00
2024-02-27T00:59:06.074Z,100.00
2024-02-27T01:01:32.823Z,100.00
2024-02-27T01:03:59.584Z,100.00
2024-02-27T01:06:27.268Z,100.00
2024-02-27T01:08:54.154Z,100.00
2024-02-27T01:11:20.866Z,100.00
2024-02-27T01:13:47.586Z,100.00
2024-02-27T01:16:14.190Z,100.00
2024-02-27T01:18:41.428Z,100.00
2024-02-27T01:21:08.623Z,100.00
2024-02-27T01:23:35.186Z,100.00
2024-02-27T01:26:01.897Z,100.00
2024-02-27T01:28:28.409Z,100.00
2024-02-27T01:30:55.021Z,100.00
2024-02-27T01:33:21.752Z,100.00
2024-02-27T01:35:48.966Z,100.00
2024-02-27T01:38:15.843Z,100.00
2024-02-27T01:40:42.485Z,100.00
2024-02-27T01:43:26.990Z,100.00
2024-02-27T01:46:14.897Z,100.00
2024-02-27T01:48:42.716Z,100.00
2024-02-27T01:51:12.822Z,100.00
2024-02-27T01:53:43.505Z,100.00
2024-02-27T01:56:12.887Z,100.00
2024-02-27T01:58:40.411Z,100.00
2024-02-27T02:01:10.680Z,100.00
2024-02-27T02:03:39.975Z,100.00
2024-02-27T02:06:08.758Z,100.00
2024-02-27T02:08:35.938Z,100.00
2024-02-27T02:11:06.294Z,100.00
2024-02-27T02:13:33.839Z,100.00
2024-02-27T02:16:01.666Z,100.00
2024-02-27T02:18:28.457Z,100.00
2024-02-27T02:20:55.578Z,100.00
2024-02-27T02:23:22.437Z,100.00
2024-02-27T02:25:50.108Z,100.00
2024-02-27T02:28:17.016Z,100.00
2024-02-27T02:30:44.361Z,100.00
2024-02-27T02:33:13.384Z,100.00
2024-02-27T02:35:45.179Z,100.00
2024-02-27T02:38:12.809Z,100.00
2024-02-27T02:40:39.410Z,100.00
2024-02-27T02:43:06.216Z,100.00
2024-02-27T02:45:32.961Z,100.00
2024-02-27T02:47:59.618Z,100.00
2024-02-27T02:50:29.327Z,100.00
2024-02-27T02:52:55.952Z,100.00
2024-02-27T02:55:22.498Z,100.00
2024-02-27T02:57:49.261Z,100.00
2024-02-27T03:00:16.735Z,100.00
2024-02-27T03:02:43.392Z,100.00
2024-02-27T03:05:13.336Z,100.00
2024-02-27T03:07:42.583Z,100.00
2024-02-27T03:10:10.114Z,100.00
2024-02-27T03:12:39.927Z,100.00
2024-02-27T03:15:07.796Z,100.00
2024-02-27T03:17:34.543Z,100.00
2024-02-27T03:20:01.392Z,100.00
2024-02-27T03:22:28.232Z,100.00
2024-02-27T03:24:54.918Z,100.00
2024-02-27T03:27:22.066Z,100.00
2024-02-27T03:29:48.905Z,100.00
2024-02-27T03:32:15.503Z,100.00
2024-02-27T03:34:42.201Z,100.00
2024-02-27T03:37:08.896Z,100.00
2024-02-27T03:39:35.517Z,100.00
2024-02-27T03:42:02.142Z,100.00
2024-02-27T03:44:28.765Z,100.00
2024-02-27T03:46:55.360Z,100.00
2024-02-27T03:49:22.119Z,100.00
2024-02-27T03:51:48.752Z,100.00
2024-02-27T03:54:15.403Z,100.00
2024-02-27T03:56:41.949Z,100.00
2024-02-27T03:59:11.874Z,100.00
2024-02-27T04:01:39.281Z,100.00
2024-02-27T04:04:06.288Z,100.00
2024-02-27T04:06:33.093Z,100.00
2024-02-27T04:08:59.866Z,100.00
2024-02-27T04:11:26.592Z,100.00
2024-02-27T04:13:53.233Z,100.00
2024-02-27T04:16:19.844Z,100.00
2024-02-27T04:18:46.701Z,100.00
2024-02-27T04:21:14.346Z,100.00
2024-02-27T04:23:41.019Z,100.00
2024-02-27T04:26:07.584Z,100.00
2024-02-27T04:28:34.218Z,100.00
2024-02-27T04:31:02.611Z,100.00
2024-02-27T04:33:29.309Z,100.00
2024-02-27T04:35:56.023Z,100.00
2024-02-27T04:38:23.958Z,100.00
2024-02-27T04:40:50.526Z,100.00
2024-02-27T04:43:17.031Z,100.00
2024-02-27T04:45:43.851Z,100.00
2024-02-27T04:48:13.963Z,100.00
2024-02-27T04:50:40.888Z,100.00
2024-02-27T04:53:07.504Z,100.00
2024-02-27T04:55:34.159Z,100.00
2024-02-27T04:58:02.403Z,100.00
2024-02-27T05:00:29.104Z,100.00
2024-02-27T05:02:56.015Z,100.00
2024-02-27T05:05:22.701Z,100.00
2024-02-27T05:07:49.273Z,100.00
2024-02-27T05:10:16.061Z,100.00
2024-02-27T05:12:42.647Z,100.00
2024-02-27T05:15:09.489Z,100.00
2024-02-27T05:17:36.119Z,100.00
2024-02-27T05:20:03.986Z,100.00
2024-02-27T05:22:30.783Z,100.00
2024-02-27T05:24:57.367Z,100.00
2024-02-27T05:27:24.083Z,100.00
2024-02-27T05:29:50.648Z,100.00
2024-02-27T05:32:17.180Z,100.00
2024-02-27T05:34:43.737Z,100.00
2024-02-27T05:37:10.492Z,100.00
2024-02-27T05:39:37.195Z,100.00
2024-02-27T05:42:04.484Z,100.00
2024-02-27T05:44:31.146Z,100.00
2024-02-27T05:46:57.789Z,100.00
2024-02-27T05:49:24.400Z,100.00
2024-02-27T05:51:50.981Z,100.00
2024-02-27T05:54:19.875Z,100.00
2024-02-27T05:56:47.986Z,100.00
2024-02-27T05:59:14.720Z,100.00
2024-02-27T06:01:41.299Z,100.00
2024-02-27T06:04:08.081Z,100.00
2024-02-27T06:06:34.988Z,100.00
2024-02-27T06:09:01.652Z,100.00
2024-02-27T06:11:28.373Z,100.00
2024-02-27T06:13:54.899Z,100.00
2024-02-27T06:16:21.503Z,100.00
2024-02-27T06:18:48.936Z,100.00
2024-02-27T06:21:35.737Z,100.00
2024-02-27T06:24:02.421Z,100.00
2024-02-27T06:26:29.020Z,100.00
2024-02-27T06:28:55.680Z,100.00
2024-02-27T06:31:22.488Z,100.00
2024-02-27T06:33:49.202Z,100.00
2024-02-27T06:36:16.006Z,100.00
2024-02-27T06:38:42.626Z,100.00
2024-02-27T06:41:09.360Z,100.00
2024-02-27T06:43:36.027Z,100.00
2024-02-27T06:46:03.558Z,100.00
2024-02-27T06:48:31.752Z,100.00
2024-02-27T06:50:58.573Z,100.00
2024-02-27T06:53:25.260Z,100.00
2024-02-27T06:55:51.975Z,100.00
2024-02-27T06:58:18.698Z,100.00
2024-02-27T07:00:45.570Z,100.00
2024-02-27T07:03:13.694Z,100.00
2024-02-27T07:05:47.244Z,100.00
2024-02-27T07:08:20.445Z,100.00
2024-02-27T07:10:47.078Z,100.00
2024-02-27T07:13:13.762Z,100.00
2024-02-27T07:15:42.468Z,100.00
2024-02-27T07:18:09.540Z,100.00
2024-02-27T07:20:36.205Z,100.00
2024-02-27T07:23:03.650Z,100.00
2024-02-27T07:25:30.373Z,100.00
2024-02-27T07:27:57.107Z,100.00
2024-02-27T07:30:24.131Z,100.00
2024-02-27T07:32:50.827Z,100.00
2024-02-27T07:35:17.532Z,100.00
2024-02-27T07:37:44.281Z,100.00
2024-02-27T07:40:11.727Z,100.00
2024-02-27T07:42:38.439Z,100.00
2024-02-27T07:45:06.879Z,100.00
2024-02-27T07:47:33.563Z,100.00
2024-02-27T07:50:00.204Z,100.00
2024-02-27T07:52:26.888Z,100.00
2024-02-27T07:54:53.416Z,100.00
2024-02-27T07:57:22.978Z,100.00
2024-02-27T07:59:49.549Z,100.00
2024-02-27T08:02:16.065Z,100.00
2024-02-27T08:04:42.649Z,100.00
2024-02-27T08:07:09.404Z,100.00
2024-02-27T08:09:36.131Z,100.00
2024-02-27T08:12:02.776Z,100.00
2024-02-27T08:14:31.419Z,100.00
2024-02-27T08:17:02.664Z,100.00
2024-02-27T08:19:29.448Z,100.00
2024-02-27T08:22:04.594Z,100.00
2024-02-27T08:24:32.467Z,100.00
2024-02-27T08:27:03.413Z,100.00
2024-02-27T08:29:32.462Z,100.00
2024-02-27T08:31:58.984Z,98.42
2024-02-27T08:34:25.715Z,100.00
2024-02-27T08:36:52.307Z,100.00
2024-02-27T08:39:18.930Z,100.00
2024-02-27T08:41:46.248Z,100.00
2024-02-27T08:44:12.799Z,100.00
2024-02-27T08:46:40.780Z,100.00
2024-02-27T08:49:07.615Z,100.00
2024-02-27T08:51:35.120Z,100.00
2024-02-27T08:54:02.859Z,100.00
2024-02-27T08:56:29.548Z,99.81
2024-02-27T08:58:56.647Z,100.00
2024-02-27T09:03:50.274Z,97.41
2024-02-27T09:06:17.201Z,97.76
2024-02-27T09:08:44.007Z,96.35
2024-02-27T09:11:11.016Z,88.49
2024-02-27T09:13:37.746Z,82.84
2024-02-27T09:16:07.070Z,83.73
2024-02-27T09:18:34.419Z,83.75
2024-02-27T09:21:02.488Z,80.88
2024-02-27T09:23:29.136Z,82.94
2024-02-27T09:25:55.760Z,85.25
2024-02-27T09:28:22.463Z,79.10
2024-02-27T09:30:49.029Z,74.93
2024-02-27T09:33:15.909Z,77.14
2024-02-27T09:35:44.177Z,75.51
2024-02-27T09:38:10.811Z,77.74
2024-02-27T09:40:37.587Z,76.43
2024-02-27T09:43:22.706Z,71.26
2024-02-27T09:45:49.783Z,74.93
2024-02-27T09:48:20.282Z,70.66
2024-02-27T09:50:52.363Z,70.09
2024-02-27T09:53:21.760Z,71.20
2024-02-27T09:55:49.063Z,67.37
2024-02-27T09:58:19.118Z,68.25
2024-02-27T10:00:46.143Z,71.47
2024-02-27T10:03:15.937Z,69.26
2024-02-27T10:05:43.807Z,67.65
2024-02-27T10:08:21.443Z,72.04
2024-02-27T10:10:48.440Z,70.66
2024-02-27T10:13:15.479Z,70.27
2024-02-27T10:15:42.059Z,69.84
2024-02-27T10:18:09.236Z,71.09
2024-02-27T10:20:36.101Z,74.58
2024-02-27T10:23:02.716Z,71.14
2024-02-27T10:25:29.405Z,67.02
2024-02-27T10:27:57.812Z,65.78
2024-02-27T10:30:26.408Z,70.26
2024-02-27T10:32:53.032Z,70.94
2024-02-27T10:35:20.706Z,64.56
2024-02-27T10:37:47.722Z,67.96
2024-02-27T10:40:14.556Z,65.46
2024-02-27T10:42:42.872Z,67.29
2024-02-27T10:45:11.980Z,68.89
2024-02-27T10:47:38.998Z,64.88
2024-02-27T10:50:07.440Z,64.99
2024-02-27T10:52:37.286Z,64.10
2024-02-27T10:55:04.643Z,60.55
2024-02-27T10:57:35.080Z,61.30
2024-02-27T11:00:02.095Z,60.28
2024-02-27T11:02:33.066Z,59.50
2024-02-27T11:05:04.804Z,60.49
2024-02-27T11:07:32.448Z,58.90
2024-02-27T11:10:01.498Z,60.25
2024-02-27T11:12:36.146Z,57.84
2024-02-27T11:15:06.246Z,59.26
2024-02-27T11:17:39.732Z,57.70
2024-02-27T11:20:08.943Z,58.94
2024-02-27T11:22:40.036Z,59.57
2024-02-27T11:25:09.024Z,58.92
2024-02-27T11:27:38.507Z,60.21
2024-02-27T11:30:08.813Z,66.19
2024-02-27T11:32:39.083Z,58.63
2024-02-27T11:35:10.016Z,60.31
2024-02-27T11:37:36.708Z,58.08
2024-02-27T11:40:05.751Z,58.25
2024-02-27T11:42:41.755Z,59.05
2024-02-27T11:45:12.184Z,59.53
2024-02-27T11:47:40.183Z,58.80
2024-02-27T11:50:11.514Z,58.64
2024-02-27T11:52:42.709Z,59.42
2024-02-27T11:55:12.545Z,59.18
2024-02-27T11:57:39.654Z,56.50
2024-02-27T12:00:15.867Z,58.84
2024-02-27T12:02:48.883Z,60.96
2024-02-27T12:05:17.673Z,57.71
2024-02-27T12:07:44.253Z,58.03
2024-02-27T12:10:14.525Z,57.64
2024-02-27T12:12:42.705Z,55.95
2024-02-27T12:15:11.386Z,56.73
2024-02-27T12:17:38.749Z,56.95
2024-02-27T12:20:07.932Z,56.05
2024-02-27T12:22:37.213Z,55.26
2024-02-27T12:25:04.830Z,55.63
2024-02-27T12:27:34.380Z,55.60
2024-02-27T12:30:12.309Z,53.67
2024-02-27T12:32:44.036Z,55.72
2024-02-27T12:35:15.076Z,58.07
2024-02-27T12:37:45.179Z,57.91
2024-02-27T12:40:15.253Z,56.25
2024-02-27T12:42:45.754Z,55.14
2024-02-27T12:45:15.240Z,51.43
2024-02-27T12:47:47.369Z,53.79
2024-02-27T12:50:17.329Z,51.58
2024-02-27T12:52:50.011Z,56.26
2024-02-27T12:55:22.845Z,58.60
2024-02-27T12:57:54.854Z,53.22
2024-02-27T13:00:24.349Z,55.27
2024-02-27T13:02:56.880Z,53.89
2024-02-27T13:05:26.661Z,55.79
2024-02-27T13:07:54.702Z,54.01
2024-02-27T13:10:22.432Z,55.08
2024-02-27T13:13:09.534Z,54.72
2024-02-27T13:15:36.895Z,53.15
2024-02-27T13:18:04.351Z,54.00
2024-02-27T13:20:31.189Z,54.37
2024-02-27T13:23:03.073Z,54.49
2024-02-27T13:25:35.933Z,52.63
2024-02-27T13:28:02.684Z,53.14
2024-02-27T13:30:29.296Z,53.01
2024-02-27T13:32:56.081Z,54.64
2024-02-27T13:35:22.787Z,50.79
2024-02-27T13:37:51.379Z,51.81
2024-02-27T13:40:18.188Z,50.54
2024-02-27T13:42:46.587Z,50.99
2024-02-27T13:45:13.408Z,54.65
2024-02-27T13:47:40.078Z,50.36
2024-02-27T13:50:07.515Z,53.15
2024-02-27T13:52:34.117Z,52.32
2024-02-27T13:55:05.586Z,51.63
2024-02-27T13:57:32.940Z,51.60
2024-02-27T13:59:59.605Z,51.54
2024-02-27T14:02:26.642Z,51.31
2024-02-27T14:04:53.429Z,52.14
2024-02-27T14:07:20.232Z,52.92
2024-02-27T14:09:46.911Z,51.86
2024-02-27T14:12:15.965Z,52.41
2024-02-27T14:14:43.764Z,53.09
2024-02-27T14:17:10.288Z,52.96
2024-02-27T14:19:36.999Z,53.41
2024-02-27T14:22:04.487Z,54.08
2024-02-27T14:24:31.108Z,54.23
2024-02-27T14:26:57.797Z,55.78
2024-02-27T14:29:24.520Z,55.27
2024-02-27T14:31:51.132Z,53.97
2024-02-27T14:34:19.311Z,56.27
2024-02-27T14:36:46.424Z,54.76
2024-02-27T14:39:13.324Z,52.81
2024-02-27T14:41:39.979Z,51.57
2024-02-27T14:44:09.204Z,51.78
2024-02-27T14:46:36.216Z,53.64
2024-02-27T14:49:02.852Z,52.84
2024-02-27T14:51:30.181Z,51.71
2024-02-27T14:53:56.821Z,53.78
2024-02-27T14:56:23.398Z,50.68
2024-02-27T14:58:50.030Z,50.87
2024-02-27T15:01:17.199Z,52.08
2024-02-27T15:03:44.014Z,52.22
2024-02-27T15:06:13.625Z,53.59
2024-02-27T15:08:40.391Z,54.35
2024-02-27T15:11:08.778Z,52.55
2024-02-27T15:13:35.617Z,55.73
2024-02-27T15:16:02.299Z,52.83
2024-02-27T15:18:29.136Z,52.82
2024-02-27T15:20:58.822Z,53.04
2024-02-27T15:23:25.372Z,53.58
2024-02-27T15:25:53.444Z,55.89
2024-02-27T15:28:20.082Z,55.41
2024-02-27T15:30:46.718Z,55.88
2024-02-27T15:33:13.382Z,55.19
2024-02-27T15:35:43.433Z,57.06
2024-02-27T15:38:10.438Z,54.81
2024-02-27T15:40:37.111Z,57.04
2024-02-27T15:43:03.958Z,56.73
2024-02-27T15:45:30.709Z,55.71
2024-02-27T15:47:57.388Z,54.00
2024-02-27T15:50:24.002Z,53.02
2024-02-27T15:52:50.646Z,56.05
2024-02-27T15:55:18.311Z,60.45
2024-02-27T15:57:45.055Z,58.65
2024-02-27T16:00:12.580Z,57.98
2024-02-27T16:02:40.108Z,55.93
2024-02-27T16:05:14.571Z,56.46
2024-02-27T16:07:48.744Z,56.64
2024-02-27T16:10:15.590Z,57.52
2024-02-27T16:12:42.308Z,58.64
2024-02-27T16:15:09.763Z,58.78
2024-02-27T16:17:36.527Z,58.87
2024-02-27T16:20:05.574Z,59.50
2024-02-27T16:22:32.231Z,61.85
2024-02-27T16:24:58.916Z,64.97
2024-02-27T16:27:25.707Z,71.45
2024-02-27T16:29:52.607Z,74.34
2024-02-27T16:32:19.533Z,76.85
2024-02-27T16:34:46.962Z,78.50
2024-02-27T16:37:13.702Z,81.75
2024-02-27T16:39:40.347Z,80.85
2024-02-27T16:42:07.002Z,83.59
2024-02-27T16:44:34.866Z,83.74
2024-02-27T16:47:02.503Z,86.13
2024-02-27T16:49:29.445Z,86.41
2024-02-27T16:51:56.168Z,87.39
2024-02-27T16:54:23.091Z,87.11
2024-02-27T16:56:49.628Z,85.30
2024-02-27T16:59:16.303Z,88.16
2024-02-27T17:01:43.168Z,87.13
2024-02-27T17:04:10.050Z,88.98
2024-02-27T17:06:41.333Z,88.80
2024-02-27T17:09:10.562Z,92.22
2024-02-27T17:11:37.486Z,92.91
2024-02-27T17:14:04.138Z,92.12
2024-02-27T17:16:31.022Z,91.11
2024-02-27T17:18:57.963Z,95.77
2024-02-27T17:21:24.801Z,94.33
2024-02-27T17:23:51.380Z,93.79
2024-02-27T17:26:18.627Z,93.39
2024-02-27T17:28:45.304Z,93.58
2024-02-27T17:31:11.872Z,93.54
2024-02-27T17:33:38.688Z,91.18
2024-02-27T17:36:06.395Z,93.45
2024-02-27T17:38:33.657Z,93.25
2024-02-27T17:41:00.184Z,94.85
2024-02-27T17:43:26.878Z,95.45
2024-02-27T17:45:53.637Z,94.75
2024-02-27T17:48:20.606Z,95.34
2024-02-27T17:50:47.902Z,95.60
2024-02-27T17:53:14.419Z,95.59
2024-02-27T17:55:41.109Z,95.89
2024-02-27T17:58:07.935Z,96.31
2024-02-27T18:00:35.708Z,97.49
2024-02-27T18:03:03.348Z,97.88
2024-02-27T18:05:30.375Z,98.16
2024-02-27T18:07:57.125Z,98.19
2024-02-27T18:10:23.903Z,100.00
2024-02-27T18:12:50.907Z,100.00
2024-02-27T18:15:18.497Z,99.95
2024-02-27T18:17:47.978Z,100.00
2024-02-27T18:20:17.031Z,100.00
2024-02-27T18:22:44.545Z,100.00
2024-02-27T18:25:13.082Z,100.00
2024-02-27T18:27:41.434Z,100.00
2024-02-27T18:30:11.164Z,100.00
2024-02-27T18:32:38.625Z,100.00
2024-02-27T18:35:05.981Z,100.00
2024-02-27T18:37:32.634Z,100.00
2024-02-27T18:40:00.786Z,100.00
2024-02-27T18:42:27.702Z,100.00
2024-02-27T18:44:54.333Z,100.00
2024-02-27T18:47:21.240Z,100.00
2024-02-27T18:49:49.371Z,100.00
2024-02-27T18:52:17.869Z,100.00
2024-02-27T18:54:45.295Z,100.00
2024-02-27T18:57:12.136Z,100.00
2024-02-27T18:59:38.801Z,100.00
2024-02-27T19:02:05.625Z,100.00
2024-02-27T19:04:32.174Z,100.00
2024-02-27T19:06:59.451Z,100.00
2024-02-27T19:09:27.588Z,100.00
2024-02-27T19:11:56.400Z,100.00
2024-02-27T19:14:23.459Z,100.00
2024-02-27T19:16:50.160Z,100.00
2024-02-27T19:19:16.929Z,100.00
2024-02-27T19:21:43.723Z,100.00
2024-02-27T19:24:10.601Z,100.00
2024-02-27T19:26:37.276Z,100.00
2024-02-27T19:29:04.122Z,100.00
2024-02-27T19:31:32.716Z,100.00
2024-02-27T19:33:59.527Z,100.00
2024-02-27T19:36:26.377Z,100.00
2024-02-27T19:38:53.018Z,100.00
2024-02-27T19:41:19.606Z,100.00
2024-02-27T19:43:46.197Z,100.00
2024-02-27T19:46:16.941Z,100.00
2024-02-27T19:48:44.104Z,100.00
2024-02-27T19:51:14.115Z,100.00
2024-02-27T19:53:40.799Z,100.00
2024-02-27T19:56:07.632Z,100.00
2024-02-27T19:58:34.413Z,100.00
2024-02-27T20:01:02.964Z,100.00
2024-02-27T20:03:29.782Z,100.00
2024-02-27T20:05:56.459Z,100.00
2024-02-27T20:08:23.674Z,100.00
2024-02-27T20:10:50.823Z,100.00
2024-02-27T20:13:20.705Z,100.00
2024-02-27T20:15:48.702Z,100.00
2024-02-27T20:18:15.440Z,100.00
2024-02-27T20:20:42.665Z,100.00
2024-02-27T20:23:10.789Z,100.00
2024-02-27T20:25:37.533Z,100.00
2024-02-27T20:28:04.648Z,100.00
2024-02-27T20:30:31.971Z,100.00
2024-02-27T20:32:59.001Z,100.00
2024-02-27T20:35:25.619Z,100.00
2024-02-27T20:37:52.710Z,100.00
2024-02-27T20:40:19.983Z,100.00
2024-02-27T20:42:47.023Z,100.00
2024-02-27T20:45:14.170Z,100.00
2024-02-27T20:47:41.050Z,100.00
2024-02-27T20:50:10.940Z,100.00
2024-02-27T20:52:38.218Z,100.00
2024-02-27T20:55:06.983Z,100.00
2024-02-27T20:57:34.012Z,100.00
2024-02-27T21:00:00.725Z,100.00
2024-02-27T21:02:28.748Z,100.00
2024-02-27T21:04:56.001Z,100.00
2024-02-27T21:07:23.550Z,100.00
2024-02-27T21:09:50.165Z,100.00
2024-02-27T21:12:16.909Z,100.00
2024-02-27T21:14:43.663Z,100.00
2024-02-27T21:17:10.241Z,100.00
2024-02-27T21:19:36.898Z,100.00
2024-02-27T21:22:03.818Z,100.00
2024-02-27T21:24:30.403Z,100.00
2024-02-27T21:26:59.003Z,100.00
2024-02-27T21:29:25.816Z,100.00
2024-02-27T21:31:52.451Z,100.00
2024-02-27T21:34:19.128Z,100.00
2024-02-27T21:36:45.803Z,100.00
2024-02-27T21:39:12.532Z,100.00
2024-02-27T21:41:39.118Z,100.00
2024-02-27T21:44:06.077Z,100.00
2024-02-27T21:46:32.605Z,100.00
2024-02-27T21:48:59.210Z,100.00
2024-02-27T21:51:25.885Z,100.00
2024-02-27T21:53:52.589Z,100.00
2024-02-27T21:56:19.269Z,100.00
2024-02-27T21:58:47.142Z,100.00
2024-02-27T22:01:13.813Z,100.00
2024-02-27T22:03:40.693Z,100.00
2024-02-27T22:06:07.510Z,100.00
2024-02-27T22:08:34.098Z,100.00
2024-02-27T22:11:00.739Z,100.00
2024-02-27T22:13:27.499Z,100.00
2024-02-27T22:15:54.211Z,100.00
2024-02-27T22:18:20.916Z,100.00
2024-02-27T22:20:47.783Z,100.00
2024-02-27T22:23:14.363Z,100.00
2024-02-27T22:25:41.521Z,100.00
2024-02-27T22:28:10.487Z,100.00
2024-02-27T22:30:37.761Z,100.00
2024-02-27T22:33:06.491Z,100.00
2024-02-27T22:35:33.496Z,100.00
2024-02-27T22:38:04.445Z,100.00
2024-02-27T22:40:31.017Z,100.00
2024-02-27T22:42:57.589Z,100.00
2024-02-27T22:45:24.895Z,100.00
2024-02-27T22:47:51.662Z,100.00
2024-02-27T22:50:18.709Z,100.00
2024-02-27T22:52:45.316Z,100.00
2024-02-27T22:55:12.484Z,100.00
2024-02-27T22:57:39.243Z,100.00
2024-02-27T23:00:09.477Z,100.00
2024-02-27T23:02:36.312Z,100.00
2024-02-27T23:05:03.103Z,100.00
2024-02-27T23:07:29.664Z,100.00
2024-02-27T23:09:56.302Z,100.00
2024-02-27T23:12:23.068Z,100.00
2024-02-27T23:14:49.690Z,100.00
2024-02-27T23:17:16.279Z,100.00
2024-02-27T23:19:42.988Z,100.00
2024-02-27T23:22:09.735Z,100.00
2024-02-27T23:24:36.302Z,100.00
2024-02-27T23:27:02.910Z,100.00
2024-02-27T23:29:29.459Z,100.00
2024-02-27T23:31:56.129Z,100.00
2024-02-27T23:34:22.764Z,100.00
2024-02-27T23:36:49.451Z,100.00
2024-02-27T23:39:16.068Z,100.00
2024-02-27T23:41:42.791Z,100.00
2024-02-27T23:44:09.386Z,100.00
2024-02-27T23:46:36.070Z,100.00
2024-02-27T23:49:02.648Z,100.00
2024-02-27T23:51:29.515Z,100.00
2024-02-27T23:53:57.667Z,100.00
2024-02-27T23:56:24.272Z,100.00
2024-02-27T23:58:50.908Z,100.00
